sensor_id;sensor_type;location;lat;lon;timestamp;temperature;humidity
6627;DHT22;3349;49.830;8.748;2023-09-19T00:01:57;17.30;99.90
6627;DHT22;3349;49.830;8.748;2023-09-19T00:04:26;17.30;99.90
6627;DHT22;3349;49.830;8.748;2023-09-19T00:06:54;17.30;99.90
6627;DHT22;3349;49.830;8.748;2023-09-19T00:09:21;17.40;99.90
6627;DHT22;3349;49.830;8.748;2023-09-19T00:11:51;17.40;99.90
6627;DHT22;3349;49.830;8.748;2023-09-19T00:14:18;17.40;99.90
6627;DHT22;3349;49.830;8.748;2023-09-19T00:16:45;17.50;99.90
6627;DHT22;3349;49.830;8.748;2023-09-19T00:19:12;17.50;99.90
6627;DHT22;3349;49.830;8.748;2023-09-19T00:21:40;17.50;99.90
6627;DHT22;3349;49.830;8.748;2023-09-19T00:24:08;17.50;99.90
6627;DHT22;3349;49.830;8.748;2023-09-19T00:26:35;17.60;99.90
6627;DHT22;3349;49.830;8.748;2023-09-19T00:29:03;17.60;99.90
6627;DHT22;3349;49.830;8.748;2023-09-19T00:31:29;17.50;99.90
6627;DHT22;3349;49.830;8.748;2023-09-19T00:33:56;17.50;99.90
6627;DHT22;3349;49.830;8.748;2023-09-19T00:36:25;17.50;99.90
6627;DHT22;3349;49.830;8.748;2023-09-19T00:38:53;17.60;99.90
6627;DHT22;3349;49.830;8.748;2023-09-19T00:41:20;17.60;99.90
6627;DHT22;3349;49.830;8.748;2023-09-19T00:43:47;17.60;99.90
6627;DHT22;3349;49.830;8.748;2023-09-19T00:46:16;17.60;99.90
6627;DHT22;3349;49.830;8.748;2023-09-19T00:48:43;17.60;99.90
6627;DHT22;3349;49.830;8.748;2023-09-19T00:51:10;17.50;99.90
6627;DHT22;3349;49.830;8.748;2023-09-19T00:53:39;17.50;99.90
6627;DHT22;3349;49.830;8.748;2023-09-19T00:56:07;17.50;99.90
6627;DHT22;3349;49.830;8.748;2023-09-19T00:58:34;17.50;99.90
6627;DHT22;3349;49.830;8.748;2023-09-19T01:01:01;17.50;99.90
6627;DHT22;3349;49.830;8.748;2023-09-19T01:03:29;17.50;99.90
6627;DHT22;3349;49.830;8.748;2023-09-19T01:05:56;17.50;99.90
6627;DHT22;3349;49.830;8.748;2023-09-19T01:08:23;17.50;99.90
6627;DHT22;3349;49.830;8.748;2023-09-19T01:10:52;17.60;99.90
6627;DHT22;3349;49.830;8.748;2023-09-19T01:13:29;17.60;99.90
6627;DHT22;3349;49.830;8.748;2023-09-19T01:16:03;17.60;99.90
6627;DHT22;3349;49.830;8.748;2023-09-19T01:18:40;17.60;99.90
6627;DHT22;3349;49.830;8.748;2023-09-19T01:21:15;17.60;99.90
6627;DHT22;3349;49.830;8.748;2023-09-19T01:24:16;17.60;99.90
6627;DHT22;3349;49.830;8.748;2023-09-19T01:27:05;17.60;99.90
6627;DHT22;3349;49.830;8.748;2023-09-19T01:29:37;17.70;99.90
6627;DHT22;3349;49.830;8.748;2023-09-19T01:32:08;17.70;99.90
6627;DHT22;3349;49.830;8.748;2023-09-19T01:34:45;17.70;99.90
6627;DHT22;3349;49.830;8.748;2023-09-19T01:37:15;17.70;99.90
6627;DHT22;3349;49.830;8.748;2023-09-19T01:39:46;17.70;99.90
6627;DHT22;3349;49.830;8.748;2023-09-19T01:42:24;17.70;99.90
6627;DHT22;3349;49.830;8.748;2023-09-19T01:45:02;17.70;99.90
6627;DHT22;3349;49.830;8.748;2023-09-19T01:47:35;17.70;99.90
6627;DHT22;3349;49.830;8.748;2023-09-19T01:50:13;17.70;99.90
6627;DHT22;3349;49.830;8.748;2023-09-19T01:52:49;17.70;99.90
6627;DHT22;3349;49.830;8.748;2023-09-19T01:55:20;17.60;99.90
6627;DHT22;3349;49.830;8.748;2023-09-19T01:57:51;17.60;99.90
6627;DHT22;3349;49.830;8.748;2023-09-19T02:00:21;17.70;99.90
6627;DHT22;3349;49.830;8.748;2023-09-19T02:02:50;17.60;99.90
6627;DHT22;3349;49.830;8.748;2023-09-19T02:05:25;17.70;99.90
6627;DHT22;3349;49.830;8.748;2023-09-19T02:07:52;17.70;99.90
6627;DHT22;3349;49.830;8.748;2023-09-19T02:10:21;17.70;99.90
6627;DHT22;3349;49.830;8.748;2023-09-19T02:12:48;17.70;99.90
6627;DHT22;3349;49.830;8.748;2023-09-19T02:15:15;17.70;99.90
6627;DHT22;3349;49.830;8.748;2023-09-19T02:17:42;17.70;99.90
6627;DHT22;3349;49.830;8.748;2023-09-19T02:20:11;17.60;99.90
6627;DHT22;3349;49.830;8.748;2023-09-19T02:22:40;17.60;99.90
6627;DHT22;3349;49.830;8.748;2023-09-19T02:25:07;17.60;99.90
6627;DHT22;3349;49.830;8.748;2023-09-19T02:27:34;17.60;99.90
6627;DHT22;3349;49.830;8.748;2023-09-19T02:30:01;17.60;99.90
6627;DHT22;3349;49.830;8.748;2023-09-19T02:32:30;17.60;99.90
6627;DHT22;3349;49.830;8.748;2023-09-19T02:34:57;17.60;99.90
6627;DHT22;3349;49.830;8.748;2023-09-19T02:37:25;17.50;99.90
6627;DHT22;3349;49.830;8.748;2023-09-19T02:39:52;17.50;99.90
6627;DHT22;3349;49.830;8.748;2023-09-19T02:42:19;17.50;99.90
6627;DHT22;3349;49.830;8.748;2023-09-19T02:44:46;17.50;99.90
6627;DHT22;3349;49.830;8.748;2023-09-19T02:47:13;17.40;99.90
6627;DHT22;3349;49.830;8.748;2023-09-19T02:49:42;17.40;99.90
6627;DHT22;3349;49.830;8.748;2023-09-19T02:52:09;17.30;99.90
6627;DHT22;3349;49.830;8.748;2023-09-19T02:54:38;17.20;99.90
6627;DHT22;3349;49.830;8.748;2023-09-19T02:57:04;17.20;99.90
6627;DHT22;3349;49.830;8.748;2023-09-19T02:59:33;17.10;99.90
6627;DHT22;3349;49.830;8.748;2023-09-19T03:02:03;17.10;99.90
6627;DHT22;3349;49.830;8.748;2023-09-19T03:04:30;17.10;99.90
6627;DHT22;3349;49.830;8.748;2023-09-19T03:06:58;17.00;99.90
6627;DHT22;3349;49.830;8.748;2023-09-19T03:09:26;17.00;99.90
6627;DHT22;3349;49.830;8.748;2023-09-19T03:11:54;17.00;99.90
6627;DHT22;3349;49.830;8.748;2023-09-19T03:14:22;16.90;99.90
6627;DHT22;3349;49.830;8.748;2023-09-19T03:16:48;16.90;99.90
6627;DHT22;3349;49.830;8.748;2023-09-19T03:19:17;16.80;99.90
6627;DHT22;3349;49.830;8.748;2023-09-19T03:21:46;16.80;99.90
6627;DHT22;3349;49.830;8.748;2023-09-19T03:24:14;16.80;99.90
6627;DHT22;3349;49.830;8.748;2023-09-19T03:26:41;16.80;99.90
6627;DHT22;3349;49.830;8.748;2023-09-19T03:29:09;16.70;99.90
6627;DHT22;3349;49.830;8.748;2023-09-19T03:31:36;16.70;99.90
6627;DHT22;3349;49.830;8.748;2023-09-19T03:34:03;16.70;99.90
6627;DHT22;3349;49.830;8.748;2023-09-19T03:36:31;16.70;99.90
6627;DHT22;3349;49.830;8.748;2023-09-19T03:39:00;16.60;99.90
6627;DHT22;3349;49.830;8.748;2023-09-19T03:41:27;16.60;99.90
6627;DHT22;3349;49.830;8.748;2023-09-19T03:43:53;16.60;99.90
6627;DHT22;3349;49.830;8.748;2023-09-19T03:46:21;16.60;99.90
6627;DHT22;3349;49.830;8.748;2023-09-19T03:48:48;16.50;99.90
6627;DHT22;3349;49.830;8.748;2023-09-19T03:51:15;16.50;99.90
6627;DHT22;3349;49.830;8.748;2023-09-19T03:53:42;16.40;99.90
6627;DHT22;3349;49.830;8.748;2023-09-19T03:56:09;16.50;99.90
6627;DHT22;3349;49.830;8.748;2023-09-19T03:58:36;16.40;99.90
6627;DHT22;3349;49.830;8.748;2023-09-19T04:01:05;16.50;99.90
6627;DHT22;3349;49.830;8.748;2023-09-19T04:03:33;16.40;99.90
6627;DHT22;3349;49.830;8.748;2023-09-19T04:06:11;16.40;99.90
6627;DHT22;3349;49.830;8.748;2023-09-19T04:08:38;16.40;99.90
6627;DHT22;3349;49.830;8.748;2023-09-19T04:11:05;16.40;99.90
6627;DHT22;3349;49.830;8.748;2023-09-19T04:13:31;16.30;99.90
6627;DHT22;3349;49.830;8.748;2023-09-19T04:15:58;16.40;99.90
6627;DHT22;3349;49.830;8.748;2023-09-19T04:18:25;16.30;99.90
6627;DHT22;3349;49.830;8.748;2023-09-19T04:20:53;16.30;99.90
6627;DHT22;3349;49.830;8.748;2023-09-19T04:23:21;16.30;99.90
6627;DHT22;3349;49.830;8.748;2023-09-19T04:25:48;16.30;99.90
6627;DHT22;3349;49.830;8.748;2023-09-19T04:28:14;16.20;99.90
6627;DHT22;3349;49.830;8.748;2023-09-19T04:30:42;16.20;99.90
6627;DHT22;3349;49.830;8.748;2023-09-19T04:33:09;16.20;99.90
6627;DHT22;3349;49.830;8.748;2023-09-19T04:35:36;16.20;99.90
6627;DHT22;3349;49.830;8.748;2023-09-19T04:38:05;16.20;99.90
6627;DHT22;3349;49.830;8.748;2023-09-19T04:40:32;16.20;99.90
6627;DHT22;3349;49.830;8.748;2023-09-19T04:42:59;16.20;99.90
6627;DHT22;3349;49.830;8.748;2023-09-19T04:45:27;16.30;99.90
6627;DHT22;3349;49.830;8.748;2023-09-19T04:47:54;16.30;99.90
6627;DHT22;3349;49.830;8.748;2023-09-19T04:50:21;16.20;99.90
6627;DHT22;3349;49.830;8.748;2023-09-19T04:52:50;16.30;99.90
6627;DHT22;3349;49.830;8.748;2023-09-19T04:55:18;16.30;99.90
6627;DHT22;3349;49.830;8.748;2023-09-19T04:57:46;16.30;99.90
6627;DHT22;3349;49.830;8.748;2023-09-19T05:00:14;16.30;99.90
6627;DHT22;3349;49.830;8.748;2023-09-19T05:02:42;16.20;99.90
6627;DHT22;3349;49.830;8.748;2023-09-19T05:05:10;16.20;99.90
6627;DHT22;3349;49.830;8.748;2023-09-19T05:07:37;16.20;99.90
6627;DHT22;3349;49.830;8.748;2023-09-19T05:10:06;16.20;99.90
6627;DHT22;3349;49.830;8.748;2023-09-19T05:12:35;16.20;99.90
6627;DHT22;3349;49.830;8.748;2023-09-19T05:15:02;16.20;99.90
6627;DHT22;3349;49.830;8.748;2023-09-19T05:17:29;16.20;99.90
6627;DHT22;3349;49.830;8.748;2023-09-19T05:19:56;16.20;99.90
6627;DHT22;3349;49.830;8.748;2023-09-19T05:22:23;16.20;99.90
6627;DHT22;3349;49.830;8.748;2023-09-19T05:24:50;16.20;99.90
6627;DHT22;3349;49.830;8.748;2023-09-19T05:27:18;16.20;99.90
6627;DHT22;3349;49.830;8.748;2023-09-19T05:29:47;16.20;99.90
6627;DHT22;3349;49.830;8.748;2023-09-19T05:32:16;16.20;99.90
6627;DHT22;3349;49.830;8.748;2023-09-19T05:34:45;16.20;99.90
6627;DHT22;3349;49.830;8.748;2023-09-19T05:37:12;16.30;99.90
6627;DHT22;3349;49.830;8.748;2023-09-19T05:39:41;16.30;99.90
6627;DHT22;3349;49.830;8.748;2023-09-19T05:42:08;16.30;99.90
6627;DHT22;3349;49.830;8.748;2023-09-19T05:44:35;16.30;99.90
6627;DHT22;3349;49.830;8.748;2023-09-19T05:47:03;16.30;99.90
6627;DHT22;3349;49.830;8.748;2023-09-19T05:49:30;16.30;99.90
6627;DHT22;3349;49.830;8.748;2023-09-19T05:51:57;16.30;99.90
6627;DHT22;3349;49.830;8.748;2023-09-19T05:54:24;16.30;99.90
6627;DHT22;3349;49.830;8.748;2023-09-19T05:56:51;16.30;99.90
6627;DHT22;3349;49.830;8.748;2023-09-19T05:59:18;16.30;99.90
6627;DHT22;3349;49.830;8.748;2023-09-19T06:01:45;16.30;99.90
6627;DHT22;3349;49.830;8.748;2023-09-19T06:04:13;16.40;99.90
6627;DHT22;3349;49.830;8.748;2023-09-19T06:06:40;16.40;99.00
6627;DHT22;3349;49.830;8.748;2023-09-19T06:09:07;16.40;98.20
6627;DHT22;3349;49.830;8.748;2023-09-19T06:11:34;16.40;97.10
6627;DHT22;3349;49.830;8.748;2023-09-19T06:14:01;16.50;96.40
6627;DHT22;3349;49.830;8.748;2023-09-19T06:16:28;16.50;96.50
6627;DHT22;3349;49.830;8.748;2023-09-19T06:18:55;16.50;95.50
6627;DHT22;3349;49.830;8.748;2023-09-19T06:21:23;16.60;93.90
6627;DHT22;3349;49.830;8.748;2023-09-19T06:23:50;16.50;93.80
6627;DHT22;3349;49.830;8.748;2023-09-19T06:26:17;16.60;93.60
6627;DHT22;3349;49.830;8.748;2023-09-19T06:28:44;16.60;93.00
6627;DHT22;3349;49.830;8.748;2023-09-19T06:31:11;16.60;92.90
6627;DHT22;3349;49.830;8.748;2023-09-19T06:33:39;16.60;93.00
6627;DHT22;3349;49.830;8.748;2023-09-19T06:36:06;16.70;93.80
6627;DHT22;3349;49.830;8.748;2023-09-19T06:38:34;16.80;93.70
6627;DHT22;3349;49.830;8.748;2023-09-19T06:41:02;16.90;93.30
6627;DHT22;3349;49.830;8.748;2023-09-19T06:43:30;16.90;92.00
6627;DHT22;3349;49.830;8.748;2023-09-19T06:45:58;16.90;92.40
6627;DHT22;3349;49.830;8.748;2023-09-19T06:48:25;16.90;92.70
6627;DHT22;3349;49.830;8.748;2023-09-19T06:50:53;16.90;92.00
6627;DHT22;3349;49.830;8.748;2023-09-19T06:53:20;16.90;91.80
6627;DHT22;3349;49.830;8.748;2023-09-19T06:55:50;16.90;92.40
6627;DHT22;3349;49.830;8.748;2023-09-19T06:58:17;16.90;91.90
6627;DHT22;3349;49.830;8.748;2023-09-19T07:00:44;16.90;91.90
6627;DHT22;3349;49.830;8.748;2023-09-19T07:03:13;17.00;92.00
6627;DHT22;3349;49.830;8.748;2023-09-19T07:05:42;17.00;92.50
6627;DHT22;3349;49.830;8.748;2023-09-19T07:08:09;16.90;92.30
6627;DHT22;3349;49.830;8.748;2023-09-19T07:10:38;17.00;92.70
6627;DHT22;3349;49.830;8.748;2023-09-19T07:13:08;17.00;92.70
6627;DHT22;3349;49.830;8.748;2023-09-19T07:15:37;17.10;92.50
6627;DHT22;3349;49.830;8.748;2023-09-19T07:18:07;17.10;92.30
6627;DHT22;3349;49.830;8.748;2023-09-19T07:20:36;17.10;92.20
6627;DHT22;3349;49.830;8.748;2023-09-19T07:23:03;17.20;92.20
6627;DHT22;3349;49.830;8.748;2023-09-19T07:25:31;17.20;92.00
6627;DHT22;3349;49.830;8.748;2023-09-19T07:27:58;17.30;92.00
6627;DHT22;3349;49.830;8.748;2023-09-19T07:30:27;17.30;90.80
6627;DHT22;3349;49.830;8.748;2023-09-19T07:32:54;17.50;90.90
6627;DHT22;3349;49.830;8.748;2023-09-19T07:35:21;17.60;90.00
6627;DHT22;3349;49.830;8.748;2023-09-19T07:37:47;17.60;88.70
6627;DHT22;3349;49.830;8.748;2023-09-19T07:40:15;17.70;88.10
6627;DHT22;3349;49.830;8.748;2023-09-19T07:42:42;17.70;85.90
6627;DHT22;3349;49.830;8.748;2023-09-19T07:45:12;17.80;84.10
6627;DHT22;3349;49.830;8.748;2023-09-19T07:47:44;17.70;84.20
6627;DHT22;3349;49.830;8.748;2023-09-19T07:50:10;17.80;82.30
6627;DHT22;3349;49.830;8.748;2023-09-19T07:52:37;17.80;81.90
6627;DHT22;3349;49.830;8.748;2023-09-19T07:55:05;17.80;80.80
6627;DHT22;3349;49.830;8.748;2023-09-19T07:57:34;17.80;80.50
6627;DHT22;3349;49.830;8.748;2023-09-19T08:00:03;17.80;78.60
6627;DHT22;3349;49.830;8.748;2023-09-19T08:02:34;17.60;78.00
6627;DHT22;3349;49.830;8.748;2023-09-19T08:05:05;17.80;78.80
6627;DHT22;3349;49.830;8.748;2023-09-19T08:07:35;17.90;76.70
6627;DHT22;3349;49.830;8.748;2023-09-19T08:10:02;18.00;77.60
6627;DHT22;3349;49.830;8.748;2023-09-19T08:12:29;18.00;75.90
6627;DHT22;3349;49.830;8.748;2023-09-19T08:14:57;18.10;74.00
6627;DHT22;3349;49.830;8.748;2023-09-19T08:17:24;18.00;73.00
6627;DHT22;3349;49.830;8.748;2023-09-19T08:19:51;18.10;72.00
6627;DHT22;3349;49.830;8.748;2023-09-19T08:22:20;18.00;71.70
6627;DHT22;3349;49.830;8.748;2023-09-19T08:24:47;18.20;71.60
6627;DHT22;3349;49.830;8.748;2023-09-19T08:27:14;18.10;70.70
6627;DHT22;3349;49.830;8.748;2023-09-19T08:29:43;18.30;69.40
6627;DHT22;3349;49.830;8.748;2023-09-19T08:32:10;18.20;68.70
6627;DHT22;3349;49.830;8.748;2023-09-19T08:34:37;18.30;68.40
6627;DHT22;3349;49.830;8.748;2023-09-19T08:37:04;18.20;66.80
6627;DHT22;3349;49.830;8.748;2023-09-19T08:39:32;18.30;67.70
6627;DHT22;3349;49.830;8.748;2023-09-19T08:42:01;18.40;67.00
6627;DHT22;3349;49.830;8.748;2023-09-19T08:44:28;18.50;64.50
6627;DHT22;3349;49.830;8.748;2023-09-19T08:47:04;18.50;64.30
6627;DHT22;3349;49.830;8.748;2023-09-19T08:49:37;18.60;62.60
6627;DHT22;3349;49.830;8.748;2023-09-19T08:52:10;18.70;61.40
6627;DHT22;3349;49.830;8.748;2023-09-19T08:54:45;18.80;60.60
6627;DHT22;3349;49.830;8.748;2023-09-19T08:57:14;18.90;59.90
6627;DHT22;3349;49.830;8.748;2023-09-19T08:59:47;18.80;59.80
6627;DHT22;3349;49.830;8.748;2023-09-19T09:02:16;18.90;59.00
6627;DHT22;3349;49.830;8.748;2023-09-19T09:04:45;19.00;59.10
6627;DHT22;3349;49.830;8.748;2023-09-19T09:07:13;19.00;58.50
6627;DHT22;3349;49.830;8.748;2023-09-19T09:09:40;19.10;57.90
6627;DHT22;3349;49.830;8.748;2023-09-19T09:12:11;19.40;56.90
6627;DHT22;3349;49.830;8.748;2023-09-19T09:14:39;19.70;56.60
6627;DHT22;3349;49.830;8.748;2023-09-19T09:17:05;20.00;54.20
6627;DHT22;3349;49.830;8.748;2023-09-19T09:19:32;20.30;51.90
6627;DHT22;3349;49.830;8.748;2023-09-19T09:22:06;20.60;50.90
6627;DHT22;3349;49.830;8.748;2023-09-19T09:24:33;21.10;50.40
6627;DHT22;3349;49.830;8.748;2023-09-19T09:27:03;21.60;49.20
6627;DHT22;3349;49.830;8.748;2023-09-19T09:29:42;21.40;48.30
6627;DHT22;3349;49.830;8.748;2023-09-19T09:32:23;21.20;47.40
6627;DHT22;3349;49.830;8.748;2023-09-19T09:34:52;21.50;47.10
6627;DHT22;3349;49.830;8.748;2023-09-19T09:37:20;21.60;47.70
6627;DHT22;3349;49.830;8.748;2023-09-19T09:39:52;21.50;48.10
6627;DHT22;3349;49.830;8.748;2023-09-19T09:42:32;21.70;48.10
6627;DHT22;3349;49.830;8.748;2023-09-19T09:45:23;21.60;47.90
6627;DHT22;3349;49.830;8.748;2023-09-19T09:48:03;21.80;48.00
6627;DHT22;3349;49.830;8.748;2023-09-19T09:50:31;22.10;46.20
6627;DHT22;3349;49.830;8.748;2023-09-19T09:53:22;22.20;45.40
6627;DHT22;3349;49.830;8.748;2023-09-19T09:56:00;22.60;45.00
6627;DHT22;3349;49.830;8.748;2023-09-19T09:58:28;23.00;44.10
6627;DHT22;3349;49.830;8.748;2023-09-19T10:00:58;23.00;43.50
6627;DHT22;3349;49.830;8.748;2023-09-19T10:03:33;23.60;43.10
6627;DHT22;3349;49.830;8.748;2023-09-19T10:06:08;24.30;42.10
6627;DHT22;3349;49.830;8.748;2023-09-19T10:09:04;24.90;40.50
6627;DHT22;3349;49.830;8.748;2023-09-19T10:11:43;24.70;39.40
6627;DHT22;3349;49.830;8.748;2023-09-19T10:14:11;24.90;39.40
6627;DHT22;3349;49.830;8.748;2023-09-19T10:16:45;25.20;39.20
6627;DHT22;3349;49.830;8.748;2023-09-19T10:19:16;25.50;37.90
6627;DHT22;3349;49.830;8.748;2023-09-19T10:21:45;25.00;37.90
6627;DHT22;3349;49.830;8.748;2023-09-19T10:24:14;25.10;38.50
6627;DHT22;3349;49.830;8.748;2023-09-19T10:26:42;25.40;38.10
6627;DHT22;3349;49.830;8.748;2023-09-19T10:29:12;26.00;36.50
6627;DHT22;3349;49.830;8.748;2023-09-19T10:31:42;26.30;36.40
6627;DHT22;3349;49.830;8.748;2023-09-19T10:34:14;26.20;36.30
6627;DHT22;3349;49.830;8.748;2023-09-19T10:36:44;26.20;35.90
6627;DHT22;3349;49.830;8.748;2023-09-19T10:39:14;26.40;35.60
6627;DHT22;3349;49.830;8.748;2023-09-19T10:41:49;26.60;33.90
6627;DHT22;3349;49.830;8.748;2023-09-19T10:44:21;26.20;34.00
6627;DHT22;3349;49.830;8.748;2023-09-19T10:46:50;25.60;32.40
6627;DHT22;3349;49.830;8.748;2023-09-19T10:49:18;25.10;32.90
6627;DHT22;3349;49.830;8.748;2023-09-19T10:51:46;25.10;33.40
6627;DHT22;3349;49.830;8.748;2023-09-19T10:54:17;25.30;33.00
6627;DHT22;3349;49.830;8.748;2023-09-19T10:56:48;26.00;33.00
6627;DHT22;3349;49.830;8.748;2023-09-19T10:59:17;26.00;32.50
6627;DHT22;3349;49.830;8.748;2023-09-19T11:01:44;26.30;32.10
6627;DHT22;3349;49.830;8.748;2023-09-19T11:04:27;27.00;31.00
6627;DHT22;3349;49.830;8.748;2023-09-19T11:07:05;27.40;30.20
6627;DHT22;3349;49.830;8.748;2023-09-19T11:09:46;28.60;29.20
6627;DHT22;3349;49.830;8.748;2023-09-19T11:21:52;29.40;27.70
6627;DHT22;3349;49.830;8.748;2023-09-19T11:24:32;30.40;28.10
6627;DHT22;3349;49.830;8.748;2023-09-19T11:27:12;30.70;26.70
6627;DHT22;3349;49.830;8.748;2023-09-19T11:29:40;30.80;26.30
6627;DHT22;3349;49.830;8.748;2023-09-19T11:32:07;30.50;26.60
6627;DHT22;3349;49.830;8.748;2023-09-19T11:34:39;30.20;26.50
6627;DHT22;3349;49.830;8.748;2023-09-19T11:40:08;30.10;27.00
6627;DHT22;3349;49.830;8.748;2023-09-19T11:42:43;30.40;27.10
6627;DHT22;3349;49.830;8.748;2023-09-19T11:48:18;30.90;26.30
6627;DHT22;3349;49.830;8.748;2023-09-19T11:50:45;29.80;26.80
6627;DHT22;3349;49.830;8.748;2023-09-19T11:53:12;28.90;27.30
6627;DHT22;3349;49.830;8.748;2023-09-19T11:55:44;29.30;28.00
6627;DHT22;3349;49.830;8.748;2023-09-19T11:58:12;29.20;27.50
6627;DHT22;3349;49.830;8.748;2023-09-19T12:00:44;28.90;28.10
6627;DHT22;3349;49.830;8.748;2023-09-19T12:03:12;29.30;27.80
6627;DHT22;3349;49.830;8.748;2023-09-19T12:05:39;29.40;27.50
6627;DHT22;3349;49.830;8.748;2023-09-19T12:08:07;29.10;27.00
6627;DHT22;3349;49.830;8.748;2023-09-19T12:10:45;28.60;27.50
6627;DHT22;3349;49.830;8.748;2023-09-19T12:13:16;28.30;27.40
6627;DHT22;3349;49.830;8.748;2023-09-19T12:15:42;28.80;27.60
6627;DHT22;3349;49.830;8.748;2023-09-19T12:18:25;28.60;27.40
6627;DHT22;3349;49.830;8.748;2023-09-19T12:20:52;28.80;27.20
6627;DHT22;3349;49.830;8.748;2023-09-19T12:23:20;29.20;26.50
6627;DHT22;3349;49.830;8.748;2023-09-19T12:25:48;29.20;26.30
6627;DHT22;3349;49.830;8.748;2023-09-19T12:28:19;29.30;26.00
6627;DHT22;3349;49.830;8.748;2023-09-19T12:30:47;29.70;26.30
6627;DHT22;3349;49.830;8.748;2023-09-19T12:33:18;30.20;26.10
6627;DHT22;3349;49.830;8.748;2023-09-19T12:35:46;30.00;25.60
6627;DHT22;3349;49.830;8.748;2023-09-19T12:38:25;29.90;25.50
6627;DHT22;3349;49.830;8.748;2023-09-19T12:40:55;30.00;25.70
6627;DHT22;3349;49.830;8.748;2023-09-19T12:43:24;30.40;25.50
6627;DHT22;3349;49.830;8.748;2023-09-19T12:45:51;30.30;24.90
6627;DHT22;3349;49.830;8.748;2023-09-19T12:48:20;29.60;25.60
6627;DHT22;3349;49.830;8.748;2023-09-19T12:51:01;29.60;26.20
6627;DHT22;3349;49.830;8.748;2023-09-19T12:53:32;30.20;26.00
6627;DHT22;3349;49.830;8.748;2023-09-19T12:56:03;29.30;26.00
6627;DHT22;3349;49.830;8.748;2023-09-19T12:58:31;28.80;27.50
6627;DHT22;3349;49.830;8.748;2023-09-19T13:01:00;28.70;27.30
6627;DHT22;3349;49.830;8.748;2023-09-19T13:03:28;28.80;27.50
6627;DHT22;3349;49.830;8.748;2023-09-19T13:05:58;28.20;28.10
6627;DHT22;3349;49.830;8.748;2023-09-19T13:08:27;28.10;28.20
6627;DHT22;3349;49.830;8.748;2023-09-19T13:11:09;27.50;28.70
6627;DHT22;3349;49.830;8.748;2023-09-19T13:13:39;26.70;28.90
6627;DHT22;3349;49.830;8.748;2023-09-19T13:16:06;26.30;30.00
6627;DHT22;3349;49.830;8.748;2023-09-19T13:18:47;25.90;30.80
6627;DHT22;3349;49.830;8.748;2023-09-19T13:21:17;25.30;31.70
6627;DHT22;3349;49.830;8.748;2023-09-19T13:23:51;25.10;32.60
6627;DHT22;3349;49.830;8.748;2023-09-19T13:26:19;24.80;32.40
6627;DHT22;3349;49.830;8.748;2023-09-19T13:28:46;24.20;33.30
6627;DHT22;3349;49.830;8.748;2023-09-19T13:31:15;24.00;34.20
6627;DHT22;3349;49.830;8.748;2023-09-19T13:33:45;23.90;34.70
6627;DHT22;3349;49.830;8.748;2023-09-19T13:36:12;23.80;34.60
6627;DHT22;3349;49.830;8.748;2023-09-19T13:38:39;23.90;34.70
6627;DHT22;3349;49.830;8.748;2023-09-19T13:41:08;23.90;34.70
6627;DHT22;3349;49.830;8.748;2023-09-19T13:43:37;23.90;34.70
6627;DHT22;3349;49.830;8.748;2023-09-19T13:46:04;23.70;35.40
6627;DHT22;3349;49.830;8.748;2023-09-19T13:48:33;23.40;34.90
6627;DHT22;3349;49.830;8.748;2023-09-19T13:51:02;23.40;36.10
6627;DHT22;3349;49.830;8.748;2023-09-19T13:53:28;23.40;36.30
6627;DHT22;3349;49.830;8.748;2023-09-19T13:55:55;23.30;36.10
6627;DHT22;3349;49.830;8.748;2023-09-19T13:58:22;23.20;36.70
6627;DHT22;3349;49.830;8.748;2023-09-19T14:00:50;23.20;36.30
6627;DHT22;3349;49.830;8.748;2023-09-19T14:03:20;23.20;36.30
6627;DHT22;3349;49.830;8.748;2023-09-19T14:05:48;23.30;36.60
6627;DHT22;3349;49.830;8.748;2023-09-19T14:08:17;23.30;36.50
6627;DHT22;3349;49.830;8.748;2023-09-19T14:10:44;23.40;36.70
6627;DHT22;3349;49.830;8.748;2023-09-19T14:13:10;23.20;37.00
6627;DHT22;3349;49.830;8.748;2023-09-19T14:15:38;23.00;37.30
6627;DHT22;3349;49.830;8.748;2023-09-19T14:18:05;23.00;37.90
6627;DHT22;3349;49.830;8.748;2023-09-19T14:20:32;22.90;37.80
6627;DHT22;3349;49.830;8.748;2023-09-19T14:22:59;22.60;38.80
6627;DHT22;3349;49.830;8.748;2023-09-19T14:25:26;22.60;38.20
6627;DHT22;3349;49.830;8.748;2023-09-19T14:27:54;22.60;38.90
6627;DHT22;3349;49.830;8.748;2023-09-19T14:30:21;22.60;38.40
6627;DHT22;3349;49.830;8.748;2023-09-19T14:32:48;22.30;39.00
6627;DHT22;3349;49.830;8.748;2023-09-19T14:35:16;22.20;38.90
6627;DHT22;3349;49.830;8.748;2023-09-19T14:37:43;22.20;39.50
6627;DHT22;3349;49.830;8.748;2023-09-19T14:40:09;22.20;39.90
6627;DHT22;3349;49.830;8.748;2023-09-19T14:42:39;22.10;40.20
6627;DHT22;3349;49.830;8.748;2023-09-19T14:45:06;22.10;40.10
6627;DHT22;3349;49.830;8.748;2023-09-19T14:47:34;22.10;40.50
6627;DHT22;3349;49.830;8.748;2023-09-19T14:50:01;22.10;41.00
6627;DHT22;3349;49.830;8.748;2023-09-19T14:52:33;22.10;41.10
6627;DHT22;3349;49.830;8.748;2023-09-19T14:55:01;22.10;40.90
6627;DHT22;3349;49.830;8.748;2023-09-19T14:57:30;22.10;41.00
6627;DHT22;3349;49.830;8.748;2023-09-19T14:59:56;22.00;41.20
6627;DHT22;3349;49.830;8.748;2023-09-19T15:02:24;22.00;41.70
6627;DHT22;3349;49.830;8.748;2023-09-19T15:04:51;22.20;41.30
6627;DHT22;3349;49.830;8.748;2023-09-19T15:07:18;22.10;41.00
6627;DHT22;3349;49.830;8.748;2023-09-19T15:09:46;22.10;41.50
6627;DHT22;3349;49.830;8.748;2023-09-19T15:12:13;22.10;41.80
6627;DHT22;3349;49.830;8.748;2023-09-19T15:14:40;22.10;41.90
6627;DHT22;3349;49.830;8.748;2023-09-19T15:17:07;22.10;41.40
6627;DHT22;3349;49.830;8.748;2023-09-19T15:19:34;22.10;41.70
6627;DHT22;3349;49.830;8.748;2023-09-19T15:22:00;22.10;41.90
6627;DHT22;3349;49.830;8.748;2023-09-19T15:24:27;22.10;41.90
6627;DHT22;3349;49.830;8.748;2023-09-19T15:26:56;22.10;41.40
6627;DHT22;3349;49.830;8.748;2023-09-19T15:29:23;22.20;40.90
6627;DHT22;3349;49.830;8.748;2023-09-19T15:31:50;22.20;40.90
6627;DHT22;3349;49.830;8.748;2023-09-19T15:34:16;22.30;41.60
6627;DHT22;3349;49.830;8.748;2023-09-19T15:36:43;22.30;41.30
6627;DHT22;3349;49.830;8.748;2023-09-19T15:39:11;22.20;41.20
6627;DHT22;3349;49.830;8.748;2023-09-19T15:41:41;22.20;42.00
6627;DHT22;3349;49.830;8.748;2023-09-19T15:44:14;22.10;41.90
6627;DHT22;3349;49.830;8.748;2023-09-19T15:46:42;22.20;42.00
6627;DHT22;3349;49.830;8.748;2023-09-19T15:49:09;22.20;42.00
6627;DHT22;3349;49.830;8.748;2023-09-19T15:51:37;22.10;41.90
6627;DHT22;3349;49.830;8.748;2023-09-19T15:54:08;22.10;42.10
6627;DHT22;3349;49.830;8.748;2023-09-19T15:56:35;22.10;41.90
6627;DHT22;3349;49.830;8.748;2023-09-19T15:59:02;22.00;42.10
6627;DHT22;3349;49.830;8.748;2023-09-19T16:01:31;22.10;41.90
6627;DHT22;3349;49.830;8.748;2023-09-19T16:03:58;22.30;41.80
6627;DHT22;3349;49.830;8.748;2023-09-19T16:06:26;22.70;40.90
6627;DHT22;3349;49.830;8.748;2023-09-19T16:08:54;22.70;41.10
6627;DHT22;3349;49.830;8.748;2023-09-19T16:11:22;22.50;41.20
6627;DHT22;3349;49.830;8.748;2023-09-19T16:13:50;22.30;42.10
6627;DHT22;3349;49.830;8.748;2023-09-19T16:16:18;22.10;41.90
6627;DHT22;3349;49.830;8.748;2023-09-19T16:18:50;22.00;42.60
6627;DHT22;3349;49.830;8.748;2023-09-19T16:21:17;21.80;42.70
6627;DHT22;3349;49.830;8.748;2023-09-19T16:23:45;21.70;43.30
6627;DHT22;3349;49.830;8.748;2023-09-19T16:26:12;21.60;43.40
6627;DHT22;3349;49.830;8.748;2023-09-19T16:28:41;21.50;43.60
6627;DHT22;3349;49.830;8.748;2023-09-19T16:31:08;21.50;44.20